Ext Cotto Mabu, Puerto Rico
Current Conditions -  °F | °C
As of 12:53 PM on Wednesday 26 Nov 2014 (Local Time) from TJNR Reporting Station
Few Clouds Few Clouds  
Wind Chill: 85°   Ceiling: Unl
Heat Index: 92°   Visibility: 10mi
Dew Point: 74°   Wind: 9mph
Humidity: 69%   Direction: 80°E
Pressure: 30.03"   Gusts: NA
Location:  18.1494°N, 65.8294°W
Report Text: TJNR 261653Z AUTO 08008KT 10SM FEW090 29/23 A3003 RMK AO2 SLP167 T02940233 $
Loading
Personal Weather Stations






























Interactive Weather Map New forecast layout! Learn more

10-Day Weather Forecast

Advertisements
Track Severe Weather on mobile